sensor_id;sensor_type;location;lat;lon;timestamp;temperature;humidity
770;DHT22;368;48.698;9.116;2023-06-26T00:00:01;17.60;98.30
770;DHT22;368;48.698;9.116;2023-06-26T00:02:29;17.40;98.50
770;DHT22;368;48.698;9.116;2023-06-26T00:04:58;17.30;99.00
770;DHT22;368;48.698;9.116;2023-06-26T00:07:27;17.30;99.30
770;DHT22;368;48.698;9.116;2023-06-26T00:09:54;17.20;99.30
770;DHT22;368;48.698;9.116;2023-06-26T00:12:21;17.10;99.60
770;DHT22;368;48.698;9.116;2023-06-26T00:14:49;17.10;99.60
770;DHT22;368;48.698;9.116;2023-06-26T00:17:16;17.10;99.60
770;DHT22;368;48.698;9.116;2023-06-26T00:19:43;17.10;99.70
770;DHT22;368;48.698;9.116;2023-06-26T00:22:09;17.10;99.70
770;DHT22;368;48.698;9.116;2023-06-26T00:24:36;17.10;99.60
770;DHT22;368;48.698;9.116;2023-06-26T00:27:03;17.00;99.20
770;DHT22;368;48.698;9.116;2023-06-26T00:29:30;17.00;99.60
770;DHT22;368;48.698;9.116;2023-06-26T00:31:58;17.00;99.50
770;DHT22;368;48.698;9.116;2023-06-26T00:34:25;17.00;99.80
770;DHT22;368;48.698;9.116;2023-06-26T00:36:52;17.00;99.90
770;DHT22;368;48.698;9.116;2023-06-26T00:39:18;16.90;99.90
770;DHT22;368;48.698;9.116;2023-06-26T00:41:45;16.90;99.90
770;DHT22;368;48.698;9.116;2023-06-26T00:44:13;16.90;99.70
770;DHT22;368;48.698;9.116;2023-06-26T00:46:39;16.80;99.80
770;DHT22;368;48.698;9.116;2023-06-26T00:49:08;16.90;99.90
770;DHT22;368;48.698;9.116;2023-06-26T00:51:35;16.90;99.90
770;DHT22;368;48.698;9.116;2023-06-26T00:54:02;17.10;99.90
770;DHT22;368;48.698;9.116;2023-06-26T00:56:29;17.20;99.90
770;DHT22;368;48.698;9.116;2023-06-26T00:58:57;17.20;99.90
770;DHT22;368;48.698;9.116;2023-06-26T01:01:23;17.10;99.90
770;DHT22;368;48.698;9.116;2023-06-26T01:03:52;16.80;99.90
770;DHT22;368;48.698;9.116;2023-06-26T01:06:22;16.70;99.90
770;DHT22;368;48.698;9.116;2023-06-26T01:12:12;16.70;99.90
770;DHT22;368;48.698;9.116;2023-06-26T01:14:39;16.80;99.90
770;DHT22;368;48.698;9.116;2023-06-26T01:17:06;16.80;99.90
770;DHT22;368;48.698;9.116;2023-06-26T01:19:33;16.80;99.90
770;DHT22;368;48.698;9.116;2023-06-26T01:22:07;16.80;99.90
770;DHT22;368;48.698;9.116;2023-06-26T01:24:44;16.70;99.90
770;DHT22;368;48.698;9.116;2023-06-26T01:27:16;16.50;99.90
770;DHT22;368;48.698;9.116;2023-06-26T01:29:45;16.40;99.90
770;DHT22;368;48.698;9.116;2023-06-26T01:32:13;16.40;99.90
770;DHT22;368;48.698;9.116;2023-06-26T01:34:40;16.30;99.90
770;DHT22;368;48.698;9.116;2023-06-26T01:37:07;16.40;99.90
770;DHT22;368;48.698;9.116;2023-06-26T01:39:34;16.50;99.90
770;DHT22;368;48.698;9.116;2023-06-26T01:42:00;16.50;99.90
770;DHT22;368;48.698;9.116;2023-06-26T01:44:29;16.50;99.90
770;DHT22;368;48.698;9.116;2023-06-26T01:47:03;16.40;99.90
770;DHT22;368;48.698;9.116;2023-06-26T01:49:39;16.50;99.90
770;DHT22;368;48.698;9.116;2023-06-26T01:52:17;16.40;99.90
770;DHT22;368;48.698;9.116;2023-06-26T01:54:53;16.50;99.90
770;DHT22;368;48.698;9.116;2023-06-26T01:57:21;16.50;99.90
770;DHT22;368;48.698;9.116;2023-06-26T01:59:51;16.50;99.90
770;DHT22;368;48.698;9.116;2023-06-26T02:02:18;16.50;99.90
770;DHT22;368;48.698;9.116;2023-06-26T02:04:45;16.60;99.90
770;DHT22;368;48.698;9.116;2023-06-26T02:07:14;16.50;99.90
770;DHT22;368;48.698;9.116;2023-06-26T02:09:41;16.60;99.90
770;DHT22;368;48.698;9.116;2023-06-26T02:12:08;16.60;99.90
770;DHT22;368;48.698;9.116;2023-06-26T02:14:35;16.50;99.90
770;DHT22;368;48.698;9.116;2023-06-26T02:17:03;16.50;99.90
770;DHT22;368;48.698;9.116;2023-06-26T02:19:30;16.40;99.90
770;DHT22;368;48.698;9.116;2023-06-26T02:21:56;16.40;99.90
770;DHT22;368;48.698;9.116;2023-06-26T02:24:23;16.30;99.90
770;DHT22;368;48.698;9.116;2023-06-26T02:26:50;16.40;99.90
770;DHT22;368;48.698;9.116;2023-06-26T02:29:17;16.50;99.90
770;DHT22;368;48.698;9.116;2023-06-26T02:31:45;16.40;99.90
770;DHT22;368;48.698;9.116;2023-06-26T02:34:13;16.40;99.90
770;DHT22;368;48.698;9.116;2023-06-26T02:36:39;16.40;99.90
770;DHT22;368;48.698;9.116;2023-06-26T02:39:06;16.30;99.90
770;DHT22;368;48.698;9.116;2023-06-26T02:41:33;16.40;99.90
770;DHT22;368;48.698;9.116;2023-06-26T02:44:00;16.40;99.90
770;DHT22;368;48.698;9.116;2023-06-26T02:46:26;16.50;99.90
770;DHT22;368;48.698;9.116;2023-06-26T02:48:53;16.40;99.90
770;DHT22;368;48.698;9.116;2023-06-26T02:51:21;16.50;99.90
770;DHT22;368;48.698;9.116;2023-06-26T02:53:48;16.50;99.90
770;DHT22;368;48.698;9.116;2023-06-26T02:56:15;16.70;99.90
770;DHT22;368;48.698;9.116;2023-06-26T02:58:42;16.60;99.90
770;DHT22;368;48.698;9.116;2023-06-26T03:01:08;16.60;99.90
770;DHT22;368;48.698;9.116;2023-06-26T03:03:35;16.60;99.90
770;DHT22;368;48.698;9.116;2023-06-26T03:06:06;16.50;99.90
770;DHT22;368;48.698;9.116;2023-06-26T03:08:36;16.50;99.90
770;DHT22;368;48.698;9.116;2023-06-26T03:11:04;16.40;99.90
770;DHT22;368;48.698;9.116;2023-06-26T03:13:30;16.30;99.90
770;DHT22;368;48.698;9.116;2023-06-26T03:15:57;16.30;99.90
770;DHT22;368;48.698;9.116;2023-06-26T03:18:24;16.30;99.90
770;DHT22;368;48.698;9.116;2023-06-26T03:20:51;16.40;99.90
770;DHT22;368;48.698;9.116;2023-06-26T03:23:19;16.40;99.90
770;DHT22;368;48.698;9.116;2023-06-26T03:25:47;16.50;99.90
770;DHT22;368;48.698;9.116;2023-06-26T03:28:14;16.50;99.90
770;DHT22;368;48.698;9.116;2023-06-26T03:30:41;16.50;99.90
770;DHT22;368;48.698;9.116;2023-06-26T03:33:08;16.60;99.90
770;DHT22;368;48.698;9.116;2023-06-26T03:35:35;16.60;99.90
770;DHT22;368;48.698;9.116;2023-06-26T03:38:03;16.80;99.90
770;DHT22;368;48.698;9.116;2023-06-26T03:40:30;16.80;99.90
770;DHT22;368;48.698;9.116;2023-06-26T03:42:58;16.90;99.90
770;DHT22;368;48.698;9.116;2023-06-26T03:45:25;16.90;99.90
770;DHT22;368;48.698;9.116;2023-06-26T03:47:52;16.90;99.90
770;DHT22;368;48.698;9.116;2023-06-26T03:50:19;16.90;99.90
770;DHT22;368;48.698;9.116;2023-06-26T03:52:46;17.00;99.90
770;DHT22;368;48.698;9.116;2023-06-26T03:55:12;17.00;99.90
770;DHT22;368;48.698;9.116;2023-06-26T03:57:39;17.00;99.90
770;DHT22;368;48.698;9.116;2023-06-26T04:00:09;17.00;99.90
770;DHT22;368;48.698;9.116;2023-06-26T04:02:38;17.00;99.90
770;DHT22;368;48.698;9.116;2023-06-26T04:05:05;17.10;99.90
770;DHT22;368;48.698;9.116;2023-06-26T04:07:32;17.10;99.90
770;DHT22;368;48.698;9.116;2023-06-26T04:10:00;17.10;99.90
770;DHT22;368;48.698;9.116;2023-06-26T04:12:26;17.10;99.90
770;DHT22;368;48.698;9.116;2023-06-26T04:14:53;17.00;99.90
770;DHT22;368;48.698;9.116;2023-06-26T04:17:21;17.10;99.90
770;DHT22;368;48.698;9.116;2023-06-26T04:19:48;17.20;99.90
770;DHT22;368;48.698;9.116;2023-06-26T04:22:15;17.30;99.90
770;DHT22;368;48.698;9.116;2023-06-26T04:24:41;17.50;99.90
770;DHT22;368;48.698;9.116;2023-06-26T04:27:09;17.60;99.90
770;DHT22;368;48.698;9.116;2023-06-26T04:29:36;17.70;99.90
770;DHT22;368;48.698;9.116;2023-06-26T04:32:03;17.70;99.90
770;DHT22;368;48.698;9.116;2023-06-26T04:34:31;17.70;99.90
770;DHT22;368;48.698;9.116;2023-06-26T04:37:00;17.70;99.90
770;DHT22;368;48.698;9.116;2023-06-26T04:39:29;17.80;99.90
770;DHT22;368;48.698;9.116;2023-06-26T04:41:56;18.00;99.90
770;DHT22;368;48.698;9.116;2023-06-26T04:44:23;18.10;99.90
770;DHT22;368;48.698;9.116;2023-06-26T04:46:49;18.00;99.90
770;DHT22;368;48.698;9.116;2023-06-26T04:49:17;18.10;99.90
770;DHT22;368;48.698;9.116;2023-06-26T04:51:45;18.10;99.90
770;DHT22;368;48.698;9.116;2023-06-26T04:54:12;18.20;99.90
770;DHT22;368;48.698;9.116;2023-06-26T04:56:39;18.30;99.90
770;DHT22;368;48.698;9.116;2023-06-26T04:59:06;18.40;99.90
770;DHT22;368;48.698;9.116;2023-06-26T05:01:34;18.50;99.90
770;DHT22;368;48.698;9.116;2023-06-26T05:04:04;18.60;99.60
770;DHT22;368;48.698;9.116;2023-06-26T05:06:31;18.80;99.20
770;DHT22;368;48.698;9.116;2023-06-26T05:08:59;19.00;98.90
770;DHT22;368;48.698;9.116;2023-06-26T05:11:26;19.10;98.80
770;DHT22;368;48.698;9.116;2023-06-26T05:13:53;19.10;98.60
770;DHT22;368;48.698;9.116;2023-06-26T05:16:19;19.40;98.30
770;DHT22;368;48.698;9.116;2023-06-26T05:18:46;19.50;98.20
770;DHT22;368;48.698;9.116;2023-06-26T05:21:13;19.60;98.10
770;DHT22;368;48.698;9.116;2023-06-26T05:23:41;19.60;97.70
770;DHT22;368;48.698;9.116;2023-06-26T05:26:11;19.80;97.50
770;DHT22;368;48.698;9.116;2023-06-26T05:28:39;20.00;97.20
770;DHT22;368;48.698;9.116;2023-06-26T05:31:06;20.20;97.00
770;DHT22;368;48.698;9.116;2023-06-26T05:33:35;20.50;96.80
770;DHT22;368;48.698;9.116;2023-06-26T05:36:04;20.90;96.10
770;DHT22;368;48.698;9.116;2023-06-26T05:38:32;21.40;95.40
770;DHT22;368;48.698;9.116;2023-06-26T05:41:00;21.40;95.20
770;DHT22;368;48.698;9.116;2023-06-26T05:43:29;21.60;95.40
770;DHT22;368;48.698;9.116;2023-06-26T05:45:56;21.80;94.70
770;DHT22;368;48.698;9.116;2023-06-26T05:48:23;21.70;94.50
770;DHT22;368;48.698;9.116;2023-06-26T05:50:50;21.90;94.80
770;DHT22;368;48.698;9.116;2023-06-26T05:53:17;22.00;94.30
770;DHT22;368;48.698;9.116;2023-06-26T05:55:45;22.10;94.30
770;DHT22;368;48.698;9.116;2023-06-26T05:58:12;22.30;94.10
770;DHT22;368;48.698;9.116;2023-06-26T06:00:41;22.50;93.60
770;DHT22;368;48.698;9.116;2023-06-26T06:03:09;22.60;93.10
770;DHT22;368;48.698;9.116;2023-06-26T06:05:36;23.10;92.80
770;DHT22;368;48.698;9.116;2023-06-26T06:08:03;23.50;92.00
770;DHT22;368;48.698;9.116;2023-06-26T06:10:30;23.80;91.10
770;DHT22;368;48.698;9.116;2023-06-26T06:12:57;23.90;90.70
770;DHT22;368;48.698;9.116;2023-06-26T06:15:24;23.90;90.40
770;DHT22;368;48.698;9.116;2023-06-26T06:17:52;23.90;90.20
770;DHT22;368;48.698;9.116;2023-06-26T06:20:19;24.10;89.90
770;DHT22;368;48.698;9.116;2023-06-26T06:22:46;24.60;89.20
770;DHT22;368;48.698;9.116;2023-06-26T06:25:14;24.70;87.60
770;DHT22;368;48.698;9.116;2023-06-26T06:27:41;24.60;87.90
770;DHT22;368;48.698;9.116;2023-06-26T06:30:09;24.80;87.60
770;DHT22;368;48.698;9.116;2023-06-26T06:32:36;24.90;86.80
770;DHT22;368;48.698;9.116;2023-06-26T06:35:05;25.10;85.90
770;DHT22;368;48.698;9.116;2023-06-26T06:37:36;25.60;85.00
770;DHT22;368;48.698;9.116;2023-06-26T06:40:03;25.60;84.10
770;DHT22;368;48.698;9.116;2023-06-26T06:42:31;25.90;82.20
770;DHT22;368;48.698;9.116;2023-06-26T06:44:58;26.00;81.70
770;DHT22;368;48.698;9.116;2023-06-26T06:47:25;26.30;82.10
770;DHT22;368;48.698;9.116;2023-06-26T06:49:51;26.40;81.30
770;DHT22;368;48.698;9.116;2023-06-26T06:52:20;26.60;79.30
770;DHT22;368;48.698;9.116;2023-06-26T06:54:54;26.70;80.80
770;DHT22;368;48.698;9.116;2023-06-26T06:57:21;26.80;77.60
770;DHT22;368;48.698;9.116;2023-06-26T06:59:48;27.00;77.20
770;DHT22;368;48.698;9.116;2023-06-26T07:02:16;27.10;76.50
770;DHT22;368;48.698;9.116;2023-06-26T07:04:44;27.60;75.90
770;DHT22;368;48.698;9.116;2023-06-26T07:07:11;28.00;73.60
770;DHT22;368;48.698;9.116;2023-06-26T07:09:40;28.20;73.50
770;DHT22;368;48.698;9.116;2023-06-26T07:12:07;28.00;73.40
770;DHT22;368;48.698;9.116;2023-06-26T07:14:34;28.30;72.20
770;DHT22;368;48.698;9.116;2023-06-26T07:17:01;28.50;70.90
770;DHT22;368;48.698;9.116;2023-06-26T07:19:27;28.70;70.60
770;DHT22;368;48.698;9.116;2023-06-26T07:21:55;28.90;68.20
770;DHT22;368;48.698;9.116;2023-06-26T07:24:21;28.60;68.90
770;DHT22;368;48.698;9.116;2023-06-26T07:26:49;28.70;68.60
770;DHT22;368;48.698;9.116;2023-06-26T07:29:16;28.90;67.40
770;DHT22;368;48.698;9.116;2023-06-26T07:31:43;29.40;65.70
770;DHT22;368;48.698;9.116;2023-06-26T07:34:10;29.00;66.00
770;DHT22;368;48.698;9.116;2023-06-26T07:36:37;29.50;66.50
770;DHT22;368;48.698;9.116;2023-06-26T07:39:04;29.50;64.90
770;DHT22;368;48.698;9.116;2023-06-26T07:41:31;29.50;66.10
770;DHT22;368;48.698;9.116;2023-06-26T07:43:59;29.40;63.50
770;DHT22;368;48.698;9.116;2023-06-26T07:46:26;29.70;64.40
770;DHT22;368;48.698;9.116;2023-06-26T07:48:53;30.30;62.60
770;DHT22;368;48.698;9.116;2023-06-26T07:51:20;30.30;61.90
770;DHT22;368;48.698;9.116;2023-06-26T07:53:47;30.20;62.00
770;DHT22;368;48.698;9.116;2023-06-26T07:56:13;30.30;63.10
770;DHT22;368;48.698;9.116;2023-06-26T07:58:40;30.30;61.70
770;DHT22;368;48.698;9.116;2023-06-26T08:01:08;30.30;61.60
770;DHT22;368;48.698;9.116;2023-06-26T08:03:35;30.80;60.50
770;DHT22;368;48.698;9.116;2023-06-26T08:06:02;31.00;60.90
770;DHT22;368;48.698;9.116;2023-06-26T08:08:29;31.30;58.80
770;DHT22;368;48.698;9.116;2023-06-26T08:10:56;31.20;59.00
770;DHT22;368;48.698;9.116;2023-06-26T08:13:23;31.70;57.30
770;DHT22;368;48.698;9.116;2023-06-26T08:15:50;31.80;57.10
770;DHT22;368;48.698;9.116;2023-06-26T08:18:18;31.40;57.00
770;DHT22;368;48.698;9.116;2023-06-26T08:20:45;31.70;57.20
770;DHT22;368;48.698;9.116;2023-06-26T08:23:12;31.90;56.40
770;DHT22;368;48.698;9.116;2023-06-26T08:25:38;32.20;57.20
770;DHT22;368;48.698;9.116;2023-06-26T08:28:05;33.20;55.00
770;DHT22;368;48.698;9.116;2023-06-26T08:30:32;33.30;54.00
770;DHT22;368;48.698;9.116;2023-06-26T08:32:59;32.90;52.80
770;DHT22;368;48.698;9.116;2023-06-26T08:35:27;32.70;53.70
770;DHT22;368;48.698;9.116;2023-06-26T08:37:54;32.70;53.20
770;DHT22;368;48.698;9.116;2023-06-26T08:40:21;32.90;53.20
770;DHT22;368;48.698;9.116;2023-06-26T08:42:48;33.20;53.30
770;DHT22;368;48.698;9.116;2023-06-26T08:45:18;33.30;52.70
770;DHT22;368;48.698;9.116;2023-06-26T08:47:45;32.80;52.00
770;DHT22;368;48.698;9.116;2023-06-26T08:50:17;33.20;51.90
770;DHT22;368;48.698;9.116;2023-06-26T08:52:53;33.30;51.10
770;DHT22;368;48.698;9.116;2023-06-26T08:55:20;33.20;51.40
770;DHT22;368;48.698;9.116;2023-06-26T08:57:50;34.60;50.20
770;DHT22;368;48.698;9.116;2023-06-26T09:00:17;34.60;50.40
770;DHT22;368;48.698;9.116;2023-06-26T09:02:45;35.50;47.70
770;DHT22;368;48.698;9.116;2023-06-26T09:05:12;35.00;46.30
770;DHT22;368;48.698;9.116;2023-06-26T09:07:39;34.50;47.70
770;DHT22;368;48.698;9.116;2023-06-26T09:10:08;34.40;48.60
770;DHT22;368;48.698;9.116;2023-06-26T09:12:36;35.60;49.50
770;DHT22;368;48.698;9.116;2023-06-26T09:15:05;34.90;45.50
770;DHT22;368;48.698;9.116;2023-06-26T09:17:38;34.40;46.70
770;DHT22;368;48.698;9.116;2023-06-26T09:20:06;34.20;49.10
770;DHT22;368;48.698;9.116;2023-06-26T09:22:36;34.00;47.60
770;DHT22;368;48.698;9.116;2023-06-26T09:25:06;33.20;49.10
770;DHT22;368;48.698;9.116;2023-06-26T09:27:34;32.00;48.80
770;DHT22;368;48.698;9.116;2023-06-26T09:30:02;31.70;50.20
770;DHT22;368;48.698;9.116;2023-06-26T09:32:29;31.00;50.50
770;DHT22;368;48.698;9.116;2023-06-26T09:34:56;31.30;50.40
770;DHT22;368;48.698;9.116;2023-06-26T09:37:23;32.50;50.10
770;DHT22;368;48.698;9.116;2023-06-26T09:39:50;33.70;46.80
770;DHT22;368;48.698;9.116;2023-06-26T09:42:19;33.80;47.90
770;DHT22;368;48.698;9.116;2023-06-26T09:44:46;32.90;46.20
770;DHT22;368;48.698;9.116;2023-06-26T09:47:16;33.00;48.80
770;DHT22;368;48.698;9.116;2023-06-26T09:49:43;34.20;46.80
770;DHT22;368;48.698;9.116;2023-06-26T09:52:10;35.70;46.00
770;DHT22;368;48.698;9.116;2023-06-26T09:54:40;35.80;44.10
770;DHT22;368;48.698;9.116;2023-06-26T09:57:09;34.20;46.50
770;DHT22;368;48.698;9.116;2023-06-26T09:59:37;34.80;47.10
770;DHT22;368;48.698;9.116;2023-06-26T10:02:05;35.10;45.60
770;DHT22;368;48.698;9.116;2023-06-26T10:04:32;33.80;46.90
770;DHT22;368;48.698;9.116;2023-06-26T10:07:02;33.70;47.00
770;DHT22;368;48.698;9.116;2023-06-26T10:09:31;34.10;46.20
770;DHT22;368;48.698;9.116;2023-06-26T10:12:02;34.00;47.50
770;DHT22;368;48.698;9.116;2023-06-26T10:14:34;33.20;47.00
770;DHT22;368;48.698;9.116;2023-06-26T10:17:04;32.60;48.20
770;DHT22;368;48.698;9.116;2023-06-26T10:19:33;31.70;48.00
770;DHT22;368;48.698;9.116;2023-06-26T10:22:02;31.30;49.40
770;DHT22;368;48.698;9.116;2023-06-26T10:24:33;31.40;49.30
770;DHT22;368;48.698;9.116;2023-06-26T10:27:04;31.50;49.80
770;DHT22;368;48.698;9.116;2023-06-26T10:29:34;31.80;50.30
770;DHT22;368;48.698;9.116;2023-06-26T10:32:04;31.90;51.80
770;DHT22;368;48.698;9.116;2023-06-26T10:34:32;32.10;50.20
770;DHT22;368;48.698;9.116;2023-06-26T10:37:00;31.40;50.30
770;DHT22;368;48.698;9.116;2023-06-26T10:39:27;31.10;52.90
770;DHT22;368;48.698;9.116;2023-06-26T10:42:09;31.60;52.30
770;DHT22;368;48.698;9.116;2023-06-26T10:44:44;31.10;54.90
770;DHT22;368;48.698;9.116;2023-06-26T10:47:29;31.50;54.70
770;DHT22;368;48.698;9.116;2023-06-26T10:49:55;33.00;53.70
770;DHT22;368;48.698;9.116;2023-06-26T10:52:26;32.70;53.50
770;DHT22;368;48.698;9.116;2023-06-26T10:54:55;32.10;53.70
770;DHT22;368;48.698;9.116;2023-06-26T10:57:23;32.60;53.90
770;DHT22;368;48.698;9.116;2023-06-26T11:00:08;33.20;52.70
770;DHT22;368;48.698;9.116;2023-06-26T11:02:48;33.40;52.70
770;DHT22;368;48.698;9.116;2023-06-26T11:05:24;34.10;51.30
770;DHT22;368;48.698;9.116;2023-06-26T11:08:04;34.30;50.50
770;DHT22;368;48.698;9.116;2023-06-26T11:10:52;34.90;49.40
770;DHT22;368;48.698;9.116;2023-06-26T11:13:20;35.70;48.40
770;DHT22;368;48.698;9.116;2023-06-26T11:15:47;35.90;49.00
770;DHT22;368;48.698;9.116;2023-06-26T11:18:17;36.10;49.60
770;DHT22;368;48.698;9.116;2023-06-26T11:20:43;36.50;47.40
770;DHT22;368;48.698;9.116;2023-06-26T11:23:11;35.20;49.00
770;DHT22;368;48.698;9.116;2023-06-26T11:25:38;35.50;48.50
770;DHT22;368;48.698;9.116;2023-06-26T11:28:05;36.10;48.00
770;DHT22;368;48.698;9.116;2023-06-26T11:30:32;35.60;47.40
770;DHT22;368;48.698;9.116;2023-06-26T11:33:05;35.40;48.30
770;DHT22;368;48.698;9.116;2023-06-26T11:35:34;35.10;47.60
770;DHT22;368;48.698;9.116;2023-06-26T11:38:03;35.80;48.40
770;DHT22;368;48.698;9.116;2023-06-26T11:40:32;35.80;48.00
770;DHT22;368;48.698;9.116;2023-06-26T11:43:00;36.10;46.30
770;DHT22;368;48.698;9.116;2023-06-26T11:45:28;35.70;47.60
770;DHT22;368;48.698;9.116;2023-06-26T11:47:56;35.70;48.10
770;DHT22;368;48.698;9.116;2023-06-26T11:50:24;36.10;48.20
770;DHT22;368;48.698;9.116;2023-06-26T11:52:56;36.70;47.20
770;DHT22;368;48.698;9.116;2023-06-26T11:55:24;36.70;47.70
770;DHT22;368;48.698;9.116;2023-06-26T11:57:53;35.50;49.00
770;DHT22;368;48.698;9.116;2023-06-26T12:00:21;34.30;49.60
770;DHT22;368;48.698;9.116;2023-06-26T12:02:48;33.00;51.90
770;DHT22;368;48.698;9.116;2023-06-26T12:05:15;33.50;51.60
770;DHT22;368;48.698;9.116;2023-06-26T12:07:43;33.80;51.60
770;DHT22;368;48.698;9.116;2023-06-26T12:10:12;33.00;51.50
770;DHT22;368;48.698;9.116;2023-06-26T12:12:40;31.80;53.70
770;DHT22;368;48.698;9.116;2023-06-26T12:15:08;32.20;55.50
770;DHT22;368;48.698;9.116;2023-06-26T12:17:38;33.40;53.50
770;DHT22;368;48.698;9.116;2023-06-26T12:20:06;34.20;51.60
770;DHT22;368;48.698;9.116;2023-06-26T12:22:43;33.00;53.10
770;DHT22;368;48.698;9.116;2023-06-26T12:25:13;33.30;53.20
770;DHT22;368;48.698;9.116;2023-06-26T12:27:40;33.90;52.20
770;DHT22;368;48.698;9.116;2023-06-26T12:30:07;32.70;54.80
770;DHT22;368;48.698;9.116;2023-06-26T12:32:35;33.80;53.30
770;DHT22;368;48.698;9.116;2023-06-26T12:35:01;33.20;52.70
770;DHT22;368;48.698;9.116;2023-06-26T12:37:29;34.40;52.20
770;DHT22;368;48.698;9.116;2023-06-26T12:39:57;35.40;51.10
770;DHT22;368;48.698;9.116;2023-06-26T12:42:26;35.10;50.80
770;DHT22;368;48.698;9.116;2023-06-26T12:44:54;34.90;51.80
770;DHT22;368;48.698;9.116;2023-06-26T12:47:24;35.10;51.00
770;DHT22;368;48.698;9.116;2023-06-26T12:49:52;34.80;52.20
770;DHT22;368;48.698;9.116;2023-06-26T12:52:20;35.60;51.20
770;DHT22;368;48.698;9.116;2023-06-26T12:54:51;35.10;50.60
770;DHT22;368;48.698;9.116;2023-06-26T12:57:18;34.40;52.10
770;DHT22;368;48.698;9.116;2023-06-26T12:59:46;34.80;52.30
770;DHT22;368;48.698;9.116;2023-06-26T13:02:13;36.10;51.20
770;DHT22;368;48.698;9.116;2023-06-26T13:04:40;36.70;48.90
770;DHT22;368;48.698;9.116;2023-06-26T13:07:07;36.20;49.90
770;DHT22;368;48.698;9.116;2023-06-26T13:09:34;35.50;51.30
770;DHT22;368;48.698;9.116;2023-06-26T13:12:02;36.00;51.00
770;DHT22;368;48.698;9.116;2023-06-26T13:14:29;35.00;50.60
770;DHT22;368;48.698;9.116;2023-06-26T13:16:57;34.60;52.60
770;DHT22;368;48.698;9.116;2023-06-26T13:19:24;35.50;52.30
770;DHT22;368;48.698;9.116;2023-06-26T13:21:51;35.00;51.40
770;DHT22;368;48.698;9.116;2023-06-26T13:24:18;35.90;51.00
770;DHT22;368;48.698;9.116;2023-06-26T13:26:44;35.90;49.90
770;DHT22;368;48.698;9.116;2023-06-26T13:29:12;34.50;51.50
770;DHT22;368;48.698;9.116;2023-06-26T13:31:39;34.30;51.60
770;DHT22;368;48.698;9.116;2023-06-26T13:34:07;34.30;52.60
770;DHT22;368;48.698;9.116;2023-06-26T13:36:33;35.00;51.10
770;DHT22;368;48.698;9.116;2023-06-26T13:39:00;34.20;51.40
770;DHT22;368;48.698;9.116;2023-06-26T13:41:27;32.70;53.30
770;DHT22;368;48.698;9.116;2023-06-26T13:43:54;31.50;55.00
770;DHT22;368;48.698;9.116;2023-06-26T13:46:21;32.40;53.30
770;DHT22;368;48.698;9.116;2023-06-26T13:48:48;32.30;53.80
770;DHT22;368;48.698;9.116;2023-06-26T13:51:16;32.50;53.80
770;DHT22;368;48.698;9.116;2023-06-26T13:53:43;33.70;52.40
770;DHT22;368;48.698;9.116;2023-06-26T13:56:10;33.00;52.80
770;DHT22;368;48.698;9.116;2023-06-26T13:58:36;32.30;52.50
770;DHT22;368;48.698;9.116;2023-06-26T14:01:05;31.80;54.00
770;DHT22;368;48.698;9.116;2023-06-26T14:03:32;32.40;53.80
770;DHT22;368;48.698;9.116;2023-06-26T14:05:58;32.50;52.10
770;DHT22;368;48.698;9.116;2023-06-26T14:08:26;31.80;52.70
770;DHT22;368;48.698;9.116;2023-06-26T14:10:53;31.40;54.10
770;DHT22;368;48.698;9.116;2023-06-26T14:13:20;31.80;53.90
770;DHT22;368;48.698;9.116;2023-06-26T14:15:47;32.40;52.40
770;DHT22;368;48.698;9.116;2023-06-26T14:18:13;32.20;52.50
770;DHT22;368;48.698;9.116;2023-06-26T14:20:40;31.60;52.30
770;DHT22;368;48.698;9.116;2023-06-26T14:23:07;31.00;52.30
770;DHT22;368;48.698;9.116;2023-06-26T14:25:35;30.80;53.40
770;DHT22;368;48.698;9.116;2023-06-26T14:28:02;31.70;52.40
770;DHT22;368;48.698;9.116;2023-06-26T14:30:28;32.20;51.40
770;DHT22;368;48.698;9.116;2023-06-26T14:32:55;31.30;52.10
770;DHT22;368;48.698;9.116;2023-06-26T14:35:22;31.10;52.50
770;DHT22;368;48.698;9.116;2023-06-26T14:37:49;31.20;52.20
770;DHT22;368;48.698;9.116;2023-06-26T14:40:16;31.20;52.00
770;DHT22;368;48.698;9.116;2023-06-26T14:42:44;32.00;52.10
770;DHT22;368;48.698;9.116;2023-06-26T14:45:11;31.30;52.50
770;DHT22;368;48.698;9.116;2023-06-26T14:47:37;31.50;52.80
770;DHT22;368;48.698;9.116;2023-06-26T14:50:05;31.60;51.50
770;DHT22;368;48.698;9.116;2023-06-26T14:52:33;31.70;51.90
770;DHT22;368;48.698;9.116;2023-06-26T14:54:59;31.90;50.90
770;DHT22;368;48.698;9.116;2023-06-26T14:57:26;32.10;51.60
770;DHT22;368;48.698;9.116;2023-06-26T14:59:54;31.50;51.20
770;DHT22;368;48.698;9.116;2023-06-26T15:02:21;31.00;51.70
770;DHT22;368;48.698;9.116;2023-06-26T15:04:48;30.80;52.70
770;DHT22;368;48.698;9.116;2023-06-26T15:07:15;31.10;52.00
770;DHT22;368;48.698;9.116;2023-06-26T15:09:41;30.90;52.30
770;DHT22;368;48.698;9.116;2023-06-26T15:12:08;30.50;52.60
770;DHT22;368;48.698;9.116;2023-06-26T15:14:35;30.40;53.90
770;DHT22;368;48.698;9.116;2023-06-26T15:17:04;30.10;54.20
770;DHT22;368;48.698;9.116;2023-06-26T15:19:30;29.90;55.00
770;DHT22;368;48.698;9.116;2023-06-26T15:21:57;30.10;53.70
770;DHT22;368;48.698;9.116;2023-06-26T15:24:24;29.30;54.70
770;DHT22;368;48.698;9.116;2023-06-26T15:26:51;28.90;55.50
770;DHT22;368;48.698;9.116;2023-06-26T15:29:17;29.30;55.90
770;DHT22;368;48.698;9.116;2023-06-26T15:31:44;29.10;55.20
770;DHT22;368;48.698;9.116;2023-06-26T15:34:13;28.80;55.40
770;DHT22;368;48.698;9.116;2023-06-26T15:36:39;29.00;55.60
770;DHT22;368;48.698;9.116;2023-06-26T15:39:06;29.00;56.50
770;DHT22;368;48.698;9.116;2023-06-26T15:41:33;29.00;55.80
770;DHT22;368;48.698;9.116;2023-06-26T15:44:02;29.40;55.60
770;DHT22;368;48.698;9.116;2023-06-26T15:46:29;28.80;56.20
770;DHT22;368;48.698;9.116;2023-06-26T15:48:56;28.80;56.50
770;DHT22;368;48.698;9.116;2023-06-26T15:51:24;28.90;56.20
770;DHT22;368;48.698;9.116;2023-06-26T15:53:50;28.60;56.20
770;DHT22;368;48.698;9.116;2023-06-26T15:56:18;28.40;56.50
770;DHT22;368;48.698;9.116;2023-06-26T15:58:45;28.80;55.80
770;DHT22;368;48.698;9.116;2023-06-26T16:01:14;28.50;56.10
770;DHT22;368;48.698;9.116;2023-06-26T16:03:41;28.40;56.70
770;DHT22;368;48.698;9.116;2023-06-26T16:06:09;27.70;57.00
770;DHT22;368;48.698;9.116;2023-06-26T16:08:37;27.50;58.60
770;DHT22;368;48.698;9.116;2023-06-26T16:11:05;27.50;57.40
770;DHT22;368;48.698;9.116;2023-06-26T16:13:32;27.40;57.80
770;DHT22;368;48.698;9.116;2023-06-26T16:15:59;27.70;57.70
770;DHT22;368;48.698;9.116;2023-06-26T16:18:25;27.70;58.10
770;DHT22;368;48.698;9.116;2023-06-26T16:20:52;27.50;58.80
770;DHT22;368;48.698;9.116;2023-06-26T16:23:20;27.50;57.90
770;DHT22;368;48.698;9.116;2023-06-26T16:25:48;27.40;58.60
770;DHT22;368;48.698;9.116;2023-06-26T16:28:14;27.50;58.60
770;DHT22;368;48.698;9.116;2023-06-26T16:30:42;27.20;58.30
770;DHT22;368;48.698;9.116;2023-06-26T16:33:09;27.20;57.80
770;DHT22;368;48.698;9.116;2023-06-26T16:35:36;26.70;57.70
770;DHT22;368;48.698;9.116;2023-06-26T16:38:04;26.50;58.00
770;DHT22;368;48.698;9.116;2023-06-26T16:40:33;26.40;58.10